Time;durP1;ratioP1;P1;durP2;ratioP2;P2;SDS_P1;SDS_P2;PMS_P1;PMS_P2;Temp;Humidity;BMP_temperature;BMP_pressure;BME280_temperature;BME280_humidity;BME280_pressure;Samples;Min_cycle;Max_cycle;Signal;HPM_P1;HPM_P2
2022/04/04 00:00:46;;;;;;;12.37;9.50;;;0.40;99.90;;;;;;5059122;28;20248;-60
2022/04/04 00:03:13;;;;;;;11.50;9.03;;;0.70;99.90;;;;;;5062382;28;20216;-61
2022/04/04 00:05:39;;;;;;;11.65;9.65;;;0.60;99.90;;;;;;5054288;28;20389;-61
2022/04/04 00:08:06;;;;;;;11.50;8.88;;;0.20;99.90;;;;;;5058056;28;20212;-61
2022/04/04 00:10:31;;;;;;;9.43;8.38;;;0.40;99.90;;;;;;5061724;28;20224;-61
2022/04/04 00:12:57;;;;;;;11.70;9.40;;;1.00;99.90;;;;;;5053449;28;20257;-61
2022/04/04 00:15:23;;;;;;;9.33;8.30;;;1.00;99.90;;;;;;5061530;28;20189;-62
2022/04/04 00:17:49;;;;;;;12.27;9.13;;;0.90;99.90;;;;;;5060927;28;20234;-60
2022/04/04 00:20:14;;;;;;;11.17;9.83;;;0.40;99.90;;;;;;5054672;28;20540;-61
2022/04/04 00:22:41;;;;;;;11.87;10.10;;;-0.20;99.90;;;;;;5057328;28;20460;-62
2022/04/04 00:25:08;;;;;;;13.30;10.07;;;0.40;99.90;;;;;;5057736;28;20227;-61
2022/04/04 00:27:35;;;;;;;10.20;8.68;;;0.40;99.90;;;;;;5055859;28;20184;-62
2022/04/04 00:30:02;;;;;;;11.13;9.32;;;0.30;99.90;;;;;;5066257;28;20567;-61
2022/04/04 00:32:28;;;;;;;10.82;9.13;;;0.90;99.90;;;;;;5063241;28;20204;-61
2022/04/04 00:34:54;;;;;;;10.95;9.52;;;0.70;99.90;;;;;;5056922;28;20197;-60
2022/04/04 00:37:20;;;;;;;10.20;9.10;;;0.70;99.90;;;;;;5060767;28;20220;-61
2022/04/04 00:39:46;;;;;;;14.77;9.57;;;0.60;99.90;;;;;;5061217;28;20424;-61
2022/04/04 00:42:15;;;;;;;10.20;8.57;;;0.30;99.90;;;;;;5056687;28;20239;-61
2022/04/04 00:44:41;;;;;;;10.93;8.77;;;0.60;99.90;;;;;;5056029;28;20178;-61
2022/04/04 00:47:08;;;;;;;9.73;8.73;;;0.60;99.90;;;;;;5059076;28;20204;-61
2022/04/04 00:49:34;;;;;;;10.73;9.35;;;0.30;99.90;;;;;;5059846;28;20184;-61
2022/04/04 00:51:59;;;;;;;10.60;8.27;;;0.50;99.90;;;;;;5063403;28;20283;-61
2022/04/04 00:54:25;;;;;;;10.90;9.47;;;-0.20;99.90;;;;;;5057340;28;20229;-61
2022/04/04 00:56:52;;;;;;;11.60;8.50;;;0.40;99.90;;;;;;5063338;28;20174;-61
2022/04/04 00:59:21;;;;;;;11.70;9.15;;;0.40;99.90;;;;;;5037603;28;20276;-61
2022/04/04 01:01:46;;;;;;;11.13;8.50;;;0.20;99.90;;;;;;5057640;28;20197;-61
2022/04/04 01:04:13;;;;;;;10.17;8.43;;;0.30;99.90;;;;;;5059230;28;20264;-61
2022/04/04 01:06:39;;;;;;;9.90;8.15;;;-0.10;99.90;;;;;;5053873;28;20177;-60
2022/04/04 01:09:05;;;;;;;11.80;8.10;;;0.40;99.90;;;;;;5064770;28;20251;-61
2022/04/04 01:11:31;;;;;;;11.80;8.63;;;0.20;99.90;;;;;;5058493;28;20186;-61
2022/04/04 01:13:57;;;;;;;9.48;8.45;;;0.40;99.90;;;;;;5058522;28;20443;-60
2022/04/04 01:16:23;;;;;;;10.05;8.27;;;0.30;99.90;;;;;;5055407;28;20182;-61
2022/04/04 01:18:49;;;;;;;12.47;9.00;;;0.80;99.90;;;;;;5065437;28;20177;-61
2022/04/04 01:21:19;;;;;;;9.20;8.03;;;0.20;99.90;;;;;;5053352;28;22259;-61
2022/04/04 01:23:50;;;;;;;9.60;8.45;;;0.80;99.90;;;;;;5041856;28;20209;-61
2022/04/04 01:26:18;;;;;;;10.68;8.77;;;0.20;99.90;;;;;;5058775;28;20639;-61
2022/04/04 01:28:44;;;;;;;11.20;8.43;;;0.30;99.90;;;;;;5063891;28;20339;-61
2022/04/04 01:31:09;;;;;;;10.43;7.80;;;0.40;99.90;;;;;;5059453;28;20669;-61
2022/04/04 01:33:37;;;;;;;9.70;7.80;;;0.90;99.90;;;;;;5061236;28;20450;-61
2022/04/04 01:36:03;;;;;;;8.98;7.93;;;0.60;99.90;;;;;;5056515;28;20188;-59
2022/04/04 01:38:29;;;;;;;11.38;8.10;;;0.30;99.90;;;;;;5059879;28;20649;-61
2022/04/04 01:40:55;;;;;;;11.13;8.57;;;0.60;99.90;;;;;;5062465;28;20371;-61
2022/04/04 01:43:20;;;;;;;9.80;8.30;;;-0.30;99.90;;;;;;5062803;28;20455;-61
2022/04/04 01:48:37;;;;;;;8.68;7.47;;;0.30;99.90;;;;;;5063068;28;20249;-61
2022/04/04 01:51:04;;;;;;;11.95;8.80;;;0.50;99.90;;;;;;5053414;28;20185;-61
2022/04/04 01:53:30;;;;;;;10.93;9.38;;;0.80;99.90;;;;;;5059856;28;20206;-62
2022/04/04 01:56:03;;;;;;;10.90;8.35;;;0.20;99.90;;;;;;5062950;28;20180;-60
2022/04/04 01:58:29;;;;;;;10.43;8.02;;;0.30;99.90;;;;;;5059185;28;20178;-61
2022/04/04 02:00:56;;;;;;;11.07;8.68;;;0.20;99.90;;;;;;5058106;28;20249;-61
2022/04/04 02:03:25;;;;;;;10.70;8.55;;;0.10;99.90;;;;;;5062156;28;20791;-61
2022/04/04 02:05:51;;;;;;;12.10;8.10;;;0.20;99.90;;;;;;5051823;28;20209;-61
2022/04/04 02:08:17;;;;;;;8.93;8.03;;;0.00;99.90;;;;;;5062706;28;20696;-61
2022/04/04 02:10:44;;;;;;;10.23;8.57;;;-0.20;99.90;;;;;;5063127;28;20440;-61
2022/04/04 02:13:10;;;;;;;10.77;8.60;;;0.00;99.90;;;;;;5059851;28;20455;-61
2022/04/04 02:15:35;;;;;;;11.10;8.47;;;0.10;99.90;;;;;;5052013;28;20196;-60
2022/04/04 02:18:01;;;;;;;9.97;8.40;;;-0.70;99.90;;;;;;5066242;28;20268;-60
2022/04/04 02:20:27;;;;;;;9.90;8.37;;;-0.10;99.90;;;;;;5057251;28;20467;-61
2022/04/04 02:22:52;;;;;;;9.50;7.87;;;0.10;99.90;;;;;;5062060;28;20197;-61
2022/04/04 02:25:18;;;;;;;11.63;8.70;;;-0.20;99.90;;;;;;5062751;28;20178;-61
2022/04/04 02:27:43;;;;;;;10.87;8.00;;;-0.70;99.90;;;;;;5060864;28;20233;-61
2022/04/04 02:30:10;;;;;;;10.63;8.67;;;-0.20;99.90;;;;;;5058443;28;20228;-61
2022/04/04 02:32:36;;;;;;;10.98;7.88;;;-0.10;99.90;;;;;;5056368;28;20209;-61
2022/04/04 02:35:03;;;;;;;13.10;9.27;;;-0.10;99.90;;;;;;5061112;28;20186;-58
2022/04/04 02:37:29;;;;;;;9.25;7.40;;;0.10;99.90;;;;;;5055333;28;20184;-59
2022/04/04 02:39:54;;;;;;;7.70;6.93;;;-0.20;99.90;;;;;;5057895;28;20704;-61
2022/04/04 02:42:20;;;;;;;11.07;9.20;;;-0.10;99.90;;;;;;5054544;28;20229;-61
2022/04/04 02:44:46;;;;;;;12.20;8.00;;;-0.10;99.90;;;;;;5054002;28;20200;-59
2022/04/04 02:47:12;;;;;;;10.70;8.00;;;0.30;99.90;;;;;;5059030;28;20180;-59
2022/04/04 02:49:38;;;;;;;9.43;8.20;;;-0.30;99.90;;;;;;5054606;28;20173;-60
2022/04/04 02:52:04;;;;;;;9.30;8.07;;;-0.80;99.90;;;;;;5052807;28;20616;-58
2022/04/04 02:54:29;;;;;;;9.95;8.32;;;-0.20;99.90;;;;;;5060184;28;20259;-61
2022/04/04 02:56:55;;;;;;;10.50;8.47;;;0.00;99.90;;;;;;5058605;28;20261;-61
2022/04/04 02:59:21;;;;;;;8.68;7.35;;;-0.30;99.90;;;;;;5054815;28;20650;-61
2022/04/04 03:01:49;;;;;;;11.60;8.10;;;-0.20;99.90;;;;;;5057711;28;20211;-61
2022/04/04 03:04:16;;;;;;;8.77;7.55;;;-0.20;99.90;;;;;;5039058;28;20185;-61
2022/04/04 03:06:41;;;;;;;10.45;8.10;;;-0.40;99.90;;;;;;5053862;28;20185;-61
2022/04/04 03:09:07;;;;;;;9.40;7.50;;;-0.20;99.90;;;;;;5057779;28;20181;-61
2022/04/04 03:11:33;;;;;;;8.50;7.60;;;-0.20;99.90;;;;;;5057658;28;20444;-61
2022/04/04 03:13:59;;;;;;;12.80;7.57;;;-0.20;99.90;;;;;;5060508;28;20193;-61
2022/04/04 03:16:24;;;;;;;8.93;7.63;;;-1.00;99.90;;;;;;5056643;28;20873;-61
2022/04/04 03:18:53;;;;;;;9.93;7.63;;;-0.60;99.90;;;;;;5056464;28;20186;-61
2022/04/04 03:21:18;;;;;;;8.50;7.65;;;-0.90;99.90;;;;;;5055826;28;20466;-61
2022/04/04 03:23:44;;;;;;;10.57;7.93;;;-0.30;99.90;;;;;;5055430;28;20197;-61
2022/04/04 03:26:10;;;;;;;8.87;7.77;;;-1.00;99.90;;;;;;5063246;28;20728;-61
2022/04/04 03:28:36;;;;;;;9.55;7.88;;;-0.20;99.90;;;;;;5061717;28;20185;-61
2022/04/04 03:31:04;;;;;;;8.88;7.25;;;-0.40;99.90;;;;;;5056562;28;20654;-61
2022/04/04 03:33:31;;;;;;;8.15;7.35;;;-0.40;99.90;;;;;;5057477;28;20210;-61
2022/04/04 03:35:58;;;;;;;8.95;8.05;;;-0.80;99.90;;;;;;5051554;28;20209;-59
2022/04/04 03:38:24;;;;;;;9.50;7.20;;;-1.00;99.90;;;;;;5057858;28;20187;-60
2022/04/04 03:40:50;;;;;;;7.75;6.53;;;-0.20;99.90;;;;;;5055536;28;20206;-61
2022/04/04 03:43:16;;;;;;;8.80;6.85;;;-0.40;99.90;;;;;;5050115;28;20201;-61
2022/04/04 03:45:41;;;;;;;7.47;6.63;;;-0.10;99.90;;;;;;5058789;28;20187;-61
2022/04/04 03:48:07;;;;;;;7.63;6.93;;;-0.30;99.90;;;;;;5064063;28;20518;-58
2022/04/04 03:50:35;;;;;;;8.55;7.05;;;-0.40;99.90;;;;;;5055255;28;20181;-58
2022/04/04 03:53:01;;;;;;;9.00;6.30;;;-1.00;99.90;;;;;;5058202;28;20288;-61
2022/04/04 03:55:31;;;;;;;8.15;6.97;;;-0.30;99.90;;;;;;5065235;28;20182;-59
2022/04/04 03:57:57;;;;;;;10.52;6.93;;;-0.30;99.90;;;;;;5055691;28;20630;-61
2022/04/04 04:00:24;;;;;;;11.05;7.82;;;-0.40;99.90;;;;;;5054015;28;21022;-61
2022/04/04 04:02:50;;;;;;;8.10;6.30;;;-0.40;99.90;;;;;;5057579;28;20299;-61
2022/04/04 04:05:16;;;;;;;8.93;7.35;;;-0.20;99.90;;;;;;5060443;28;20262;-61
2022/04/04 04:07:42;;;;;;;8.02;6.50;;;-0.40;99.90;;;;;;5064510;28;20193;-61
2022/04/04 04:10:11;;;;;;;8.43;6.30;;;-0.50;99.90;;;;;;5064455;28;20191;-61
2022/04/04 04:12:40;;;;;;;7.15;6.45;;;-0.40;99.90;;;;;;5062652;28;20201;-61
2022/04/04 04:15:12;;;;;;;7.93;6.45;;;-0.60;99.90;;;;;;5057678;28;20264;-59
2022/04/04 04:17:38;;;;;;;10.10;7.65;;;-0.30;99.90;;;;;;5062296;28;20694;-60
2022/04/04 04:20:20;;;;;;;7.65;6.60;;;-0.60;99.90;;;;;;5061251;28;20188;-61
2022/04/04 04:23:07;;;;;;;8.63;7.72;;;-0.40;99.90;;;;;;5058960;28;20202;-61
2022/04/04 04:25:35;;;;;;;8.43;7.18;;;-0.60;99.90;;;;;;5062685;28;20187;-59
2022/04/04 04:28:02;;;;;;;6.88;5.82;;;-0.90;99.90;;;;;;5063252;28;20236;-61
2022/04/04 04:30:29;;;;;;;8.50;6.60;;;-0.50;99.90;;;;;;5038230;28;20268;-58
2022/04/04 04:32:55;;;;;;;8.63;6.80;;;-0.60;99.90;;;;;;5053523;28;20259;-61
2022/04/04 04:35:22;;;;;;;9.00;6.00;;;-0.50;99.90;;;;;;5055165;28;20182;-61
2022/04/04 04:37:50;;;;;;;10.05;6.95;;;-0.50;99.90;;;;;;5063122;28;20182;-61
2022/04/04 04:40:16;;;;;;;6.82;6.13;;;-0.50;99.90;;;;;;5060750;28;20180;-60
2022/04/04 04:42:42;;;;;;;8.93;7.30;;;-0.50;99.90;;;;;;5057884;28;20260;-59
2022/04/04 04:45:08;;;;;;;9.23;7.50;;;-0.70;99.90;;;;;;5054533;28;20434;-59
2022/04/04 04:47:34;;;;;;;9.40;7.40;;;-0.50;99.90;;;;;;5062965;28;20177;-59
2022/04/04 04:50:02;;;;;;;6.97;6.38;;;-0.60;99.90;;;;;;5041019;28;20481;-61
2022/04/04 04:52:28;;;;;;;8.80;7.13;;;-0.60;99.90;;;;;;5039422;28;20212;-61
2022/04/04 04:54:54;;;;;;;8.60;6.70;;;-0.90;99.90;;;;;;5062219;28;20187;-59
2022/04/04 04:57:21;;;;;;;7.75;6.95;;;-0.70;99.90;;;;;;5055347;28;20569;-60
2022/04/04 04:59:47;;;;;;;8.38;6.65;;;-1.00;99.90;;;;;;5055812;28;20599;-61
2022/04/04 05:02:13;;;;;;;9.23;6.35;;;-0.70;99.90;;;;;;5054395;28;20216;-61
2022/04/04 05:04:39;;;;;;;7.90;6.80;;;-0.40;99.90;;;;;;5054776;28;20185;-61
2022/04/04 05:07:08;;;;;;;7.03;6.33;;;-0.30;99.90;;;;;;5056802;28;20575;-61
2022/04/04 05:09:34;;;;;;;8.75;6.28;;;-0.50;99.90;;;;;;5052672;28;20443;-61
2022/04/04 05:12:00;;;;;;;8.88;7.07;;;-1.20;99.90;;;;;;5055460;28;20201;-62
2022/04/04 05:14:27;;;;;;;8.70;6.80;;;-0.60;99.90;;;;;;5036541;28;20208;-61
2022/04/04 05:16:53;;;;;;;10.30;6.30;;;-0.30;99.90;;;;;;5051937;28;20349;-58
2022/04/04 05:19:19;;;;;;;8.07;6.70;;;-0.60;99.90;;;;;;5040222;28;20734;-61
2022/04/04 05:21:46;;;;;;;7.90;6.38;;;-1.00;99.90;;;;;;5061392;28;20256;-58
2022/04/04 05:24:12;;;;;;;8.52;6.70;;;-0.80;99.90;;;;;;5065108;28;20182;-61
2022/04/04 05:26:38;;;;;;;12.85;7.78;;;-0.60;99.90;;;;;;5054901;28;20185;-61
2022/04/04 05:29:04;;;;;;;8.05;6.32;;;-0.80;99.90;;;;;;5054678;28;20190;-60
2022/04/04 05:31:31;;;;;;;8.13;6.80;;;-1.00;99.90;;;;;;5046622;28;20184;-61
2022/04/04 05:33:58;;;;;;;9.23;7.40;;;-1.40;99.90;;;;;;5056354;28;20440;-61
2022/04/04 05:36:28;;;;;;;9.55;6.95;;;-0.60;99.90;;;;;;5053377;28;20215;-61
2022/04/04 05:38:55;;;;;;;10.77;7.75;;;-0.80;99.90;;;;;;5065199;28;20271;-61
2022/04/04 05:41:20;;;;;;;11.00;7.63;;;-0.70;99.90;;;;;;5064532;28;20219;-59
2022/04/04 05:43:47;;;;;;;8.47;7.03;;;-0.50;99.90;;;;;;5049984;28;20200;-61
2022/04/04 05:46:17;;;;;;;10.95;7.82;;;-0.60;99.90;;;;;;5055033;28;20437;-61
2022/04/04 05:48:43;;;;;;;11.70;7.35;;;-0.70;99.90;;;;;;5058463;28;20193;-61
2022/04/04 05:51:09;;;;;;;7.82;7.03;;;-0.50;99.90;;;;;;5035270;28;20684;-63
2022/04/04 05:53:36;;;;;;;7.97;6.85;;;-0.60;99.90;;;;;;5061545;28;20209;-63
2022/04/04 05:56:02;;;;;;;10.95;7.75;;;-0.40;99.90;;;;;;5057282;28;20199;-68
2022/04/04 05:58:28;;;;;;;15.90;9.00;;;-0.60;99.90;;;;;;5057356;28;20189;-65
2022/04/04 06:00:54;;;;;;;7.80;6.22;;;-0.30;99.90;;;;;;5051959;28;20197;-60
2022/04/04 06:03:20;;;;;;;8.77;7.20;;;-0.40;99.90;;;;;;5049432;28;20206;-63
2022/04/04 06:05:49;;;;;;;9.43;6.93;;;-0.20;99.90;;;;;;5032945;28;20745;-63
2022/04/04 06:08:18;;;;;;;8.82;7.57;;;-0.30;99.90;;;;;;5057100;28;20230;-61
2022/04/04 06:10:45;;;;;;;9.38;7.50;;;0.00;99.90;;;;;;5056532;28;20642;-62
2022/04/04 06:13:13;;;;;;;8.32;7.43;;;0.20;99.90;;;;;;5038920;28;20713;-62
2022/04/04 06:15:39;;;;;;;8.55;7.65;;;0.30;99.90;;;;;;5054561;28;20228;-62
2022/04/04 06:18:04;;;;;;;7.33;6.60;;;0.60;99.90;;;;;;5056062;28;20225;-62
2022/04/04 06:20:30;;;;;;;8.80;6.43;;;0.80;99.90;;;;;;5058219;28;20468;-62
2022/04/04 06:22:56;;;;;;;10.40;7.77;;;0.90;99.90;;;;;;5052461;28;20297;-62
2022/04/04 06:25:21;;;;;;;7.77;6.40;;;0.50;99.90;;;;;;5050438;28;20222;-62
2022/04/04 06:27:47;;;;;;;7.73;6.63;;;1.20;99.90;;;;;;5049342;28;20273;-66
2022/04/04 06:30:13;;;;;;;7.80;6.70;;;1.40;99.90;;;;;;5055760;28;20208;-65
2022/04/04 06:32:45;;;;;;;6.72;6.05;;;1.70;99.60;;;;;;5038556;28;20193;-61
2022/04/04 06:35:15;;;;;;;6.63;5.90;;;2.10;99.20;;;;;;5050600;28;20664;-63
2022/04/04 06:37:42;;;;;;;6.60;5.70;;;1.80;98.40;;;;;;5057804;28;20186;-63
2022/04/04 06:40:08;;;;;;;7.32;6.60;;;1.80;96.80;;;;;;5054695;28;20528;-63
2022/04/04 06:42:35;;;;;;;10.40;6.88;;;2.60;96.90;;;;;;5061269;28;20209;-63
2022/04/04 06:45:01;;;;;;;8.02;7.05;;;2.40;95.90;;;;;;5064175;28;20194;-62
2022/04/04 06:47:27;;;;;;;8.53;6.80;;;3.30;95.30;;;;;;5053532;28;20212;-61
2022/04/04 06:49:53;;;;;;;9.57;6.70;;;3.70;94.20;;;;;;5062246;28;20490;-60
2022/04/04 06:52:19;;;;;;;7.03;6.33;;;4.20;93.10;;;;;;5050290;28;20277;-60
2022/04/04 06:54:48;;;;;;;7.47;6.78;;;4.90;91.50;;;;;;5052302;28;20892;-60
2022/04/04 06:57:15;;;;;;;6.93;5.60;;;5.80;90.10;;;;;;5053893;28;20195;-61
2022/04/04 06:59:41;;;;;;;8.60;6.38;;;5.60;86.80;;;;;;5052350;28;20182;-63
2022/04/04 07:02:07;;;;;;;6.45;5.85;;;6.20;84.80;;;;;;5051587;28;20217;-61
2022/04/04 07:04:33;;;;;;;6.93;6.18;;;6.40;82.90;;;;;;5053504;28;20231;-60
2022/04/04 07:06:59;;;;;;;6.83;5.60;;;6.70;81.00;;;;;;5049591;28;20525;-62
2022/04/04 07:09:25;;;;;;;8.50;5.65;;;7.60;78.70;;;;;;5060076;28;20260;-61
2022/04/04 07:11:51;;;;;;;9.67;8.00;;;8.40;73.80;;;;;;5050321;28;20316;-61
2022/04/04 07:14:18;;;;;;;6.88;5.95;;;8.80;70.60;;;;;;5049454;28;20831;-61
2022/04/04 07:16:44;;;;;;;6.45;5.53;;;9.30;70.20;;;;;;5050982;28;20614;-61
2022/04/04 07:19:14;;;;;;;6.00;5.40;;;10.00;63.60;;;;;;5052312;28;20684;-62
2022/04/04 07:21:40;;;;;;;5.60;5.10;;;10.70;65.10;;;;;;5051967;28;20219;-62
2022/04/04 07:24:06;;;;;;;6.50;5.80;;;10.50;61.40;;;;;;5059172;28;20279;-62
2022/04/04 07:26:31;;;;;;;6.78;6.07;;;11.90;59.10;;;;;;5051725;28;20185;-60
2022/04/04 07:28:57;;;;;;;8.43;6.93;;;12.00;57.60;;;;;;5050353;28;20253;-65
2022/04/04 07:31:23;;;;;;;5.80;5.20;;;12.10;57.10;;;;;;5056847;28;20247;-64
2022/04/04 07:33:48;;;;;;;6.03;5.53;;;13.00;54.90;;;;;;5057843;28;20733;-64
2022/04/04 07:36:14;;;;;;;7.27;5.97;;;13.00;52.80;;;;;;5049710;28;20728;-61
2022/04/04 07:38:40;;;;;;;6.33;5.70;;;12.90;52.60;;;;;;5056580;28;20185;-63
2022/04/04 07:41:05;;;;;;;8.63;5.60;;;13.50;51.30;;;;;;5055949;28;20209;-64
2022/04/04 07:43:31;;;;;;;5.77;5.07;;;14.00;50.30;;;;;;5049484;28;20616;-65
2022/04/04 07:45:58;;;;;;;5.65;5.10;;;13.80;49.40;;;;;;5052663;28;20586;-65
2022/04/04 07:48:23;;;;;;;5.47;5.00;;;14.50;48.30;;;;;;5052874;28;20180;-64
2022/04/04 07:50:51;;;;;;;5.73;5.23;;;14.60;48.50;;;;;;5052976;28;20182;-63
2022/04/04 07:53:18;;;;;;;5.85;5.40;;;14.20;49.40;;;;;;5059936;28;20212;-64
2022/04/04 07:55:43;;;;;;;7.07;6.10;;;14.70;48.50;;;;;;5046533;28;20197;-64
2022/04/04 07:58:09;;;;;;;7.47;5.70;;;14.20;48.30;;;;;;5053081;28;20184;-63
2022/04/04 08:00:35;;;;;;;6.17;5.67;;;15.10;47.50;;;;;;5053506;28;20231;-62
2022/04/04 08:03:01;;;;;;;6.13;5.63;;;14.60;46.90;;;;;;5048607;28;20463;-64
2022/04/04 08:05:27;;;;;;;6.40;5.80;;;13.80;47.50;;;;;;5035868;28;20200;-63
2022/04/04 08:07:52;;;;;;;6.97;6.38;;;13.30;47.30;;;;;;5051994;28;20452;-65
2022/04/04 08:10:18;;;;;;;7.90;6.03;;;14.70;46.10;;;;;;5051770;28;20200;-68
2022/04/04 08:12:50;;;;;;;7.05;6.40;;;15.90;44.30;;;;;;5050727;28;20340;-67
2022/04/04 08:15:15;;;;;;;7.03;6.32;;;15.60;43.40;;;;;;5044336;28;20277;-62
2022/04/04 08:17:41;;;;;;;7.53;6.73;;;15.20;43.40;;;;;;5048000;28;20189;-63
2022/04/04 08:20:08;;;;;;;6.03;5.43;;;14.90;44.20;;;;;;5056986;28;20712;-61
2022/04/04 08:22:42;;;;;;;8.15;7.40;;;15.30;44.30;;;;;;5047995;28;20510;-64
2022/04/04 08:25:09;;;;;;;6.85;6.18;;;15.70;43.20;;;;;;5032495;28;20185;-67
2022/04/04 08:27:35;;;;;;;7.85;6.53;;;14.80;42.40;;;;;;5057813;28;20196;-67
2022/04/04 08:30:07;;;;;;;6.63;5.90;;;14.50;43.10;;;;;;5051034;28;20573;-67
2022/04/04 08:32:36;;;;;;;7.45;6.85;;;15.00;42.10;;;;;;5032913;28;20252;-67
2022/04/04 08:35:03;;;;;;;7.35;6.75;;;16.30;42.00;;;;;;5052288;28;20189;-65
2022/04/04 08:37:29;;;;;;;8.10;6.75;;;15.60;40.40;;;;;;5047746;28;20201;-65
2022/04/04 08:39:54;;;;;;;6.60;6.10;;;16.30;40.60;;;;;;5055060;28;20545;-60
2022/04/04 08:42:26;;;;;;;6.73;6.13;;;15.60;40.70;;;;;;5052750;28;20594;-60
2022/04/04 08:44:55;;;;;;;7.50;6.78;;;15.10;40.90;;;;;;5050271;28;20173;-62
2022/04/04 08:47:20;;;;;;;6.45;5.90;;;15.30;40.80;;;;;;5060193;28;20188;-63
2022/04/04 08:49:47;;;;;;;7.83;7.10;;;16.10;39.80;;;;;;5053524;28;20181;-62
2022/04/04 08:52:15;;;;;;;6.72;6.22;;;16.20;38.60;;;;;;5041149;28;20699;-65
2022/04/04 08:54:41;;;;;;;7.13;6.25;;;15.40;39.00;;;;;;5058789;28;20212;-62
2022/04/04 08:57:06;;;;;;;6.20;5.70;;;15.70;39.40;;;;;;5053938;28;20674;-66
2022/04/04 08:59:32;;;;;;;6.53;6.07;;;15.10;39.50;;;;;;5051658;28;20186;-67
2022/04/04 09:01:58;;;;;;;6.80;6.30;;;15.00;39.60;;;;;;5066788;28;20281;-68
2022/04/04 09:04:23;;;;;;;6.47;5.87;;;14.40;39.90;;;;;;5051102;28;20402;-68
2022/04/04 09:06:51;;;;;;;7.03;6.40;;;14.40;40.80;;;;;;5055553;28;20217;-68
2022/04/04 09:09:24;;;;;;;7.25;6.63;;;14.70;39.80;;;;;;5052192;28;20626;-68
2022/04/04 09:12:06;;;;;;;6.85;6.15;;;14.30;39.80;;;;;;5056213;28;20438;-64
2022/04/04 09:14:37;;;;;;;6.65;5.95;;;14.70;40.10;;;;;;5053819;28;20250;-64
2022/04/04 09:17:05;;;;;;;7.40;6.70;;;14.00;39.80;;;;;;5043123;28;20203;-63
2022/04/04 09:19:31;;;;;;;6.93;6.07;;;13.90;41.10;;;;;;5056830;28;20207;-66
2022/04/04 09:22:05;;;;;;;6.38;5.80;;;14.10;39.20;;;;;;5049629;28;20212;-66
2022/04/04 09:24:55;;;;;;;6.78;6.28;;;13.50;38.20;;;;;;5060492;28;20181;-66
2022/04/04 09:27:28;;;;;;;5.70;5.20;;;13.50;37.10;;;;;;5040190;28;20239;-65
2022/04/04 09:30:19;;;;;;;6.53;6.03;;;13.80;38.60;;;;;;5056236;28;20182;-64
2022/04/04 09:32:46;;;;;;;5.97;5.47;;;14.50;37.60;;;;;;5054850;28;20221;-63
2022/04/04 09:35:20;;;;;;;6.28;5.78;;;14.40;37.30;;;;;;5053227;28;20639;-63
2022/04/04 09:37:48;;;;;;;6.97;6.10;;;14.10;38.70;;;;;;5047676;28;20181;-65
2022/04/04 09:40:24;;;;;;;6.78;6.07;;;14.70;38.00;;;;;;5054334;28;20181;-63
2022/04/04 09:42:50;;;;;;;6.60;6.10;;;13.60;37.60;;;;;;5054513;28;20201;-62
2022/04/04 09:45:16;;;;;;;6.47;5.67;;;13.20;37.80;;;;;;5057566;28;20223;-61
2022/04/04 09:47:50;;;;;;;6.47;5.80;;;13.70;38.80;;;;;;5063897;28;20276;-63
2022/04/04 09:50:32;;;;;;;6.95;6.00;;;14.30;38.50;;;;;;5048276;28;20427;-63
2022/04/04 09:52:58;;;;;;;6.65;6.05;;;14.70;37.90;;;;;;5059629;28;20201;-63
2022/04/04 09:55:31;;;;;;;6.95;6.35;;;15.30;37.80;;;;;;5048908;28;20672;-60
2022/04/04 09:57:59;;;;;;;6.57;5.97;;;14.70;38.00;;;;;;5045342;28;20589;-59
2022/04/04 10:00:25;;;;;;;6.57;6.00;;;14.80;38.80;;;;;;5052283;28;20181;-59
2022/04/04 10:02:54;;;;;;;7.25;6.65;;;15.20;38.90;;;;;;5052525;28;20607;-59
2022/04/04 10:05:21;;;;;;;6.80;6.30;;;14.80;37.70;;;;;;5052893;28;20420;-60
2022/04/04 10:07:48;;;;;;;6.45;5.78;;;16.20;39.30;;;;;;5052845;28;20197;-60
2022/04/04 10:10:15;;;;;;;6.40;5.90;;;16.30;38.80;;;;;;5052209;28;20693;-59
2022/04/04 10:12:42;;;;;;;7.22;6.63;;;15.70;37.80;;;;;;5049948;28;20217;-59
2022/04/04 10:15:09;;;;;;;6.35;5.75;;;15.40;38.60;;;;;;5049571;28;20189;-59
2022/04/04 10:17:34;;;;;;;7.32;6.72;;;15.60;38.80;;;;;;5056079;28;20189;-59
2022/04/04 10:20:01;;;;;;;7.20;6.53;;;15.40;39.50;;;;;;5054501;28;20204;-60
2022/04/04 10:22:27;;;;;;;7.50;6.80;;;15.00;41.70;;;;;;5054768;28;20467;-60
2022/04/04 10:24:56;;;;;;;6.57;6.07;;;14.20;41.20;;;;;;5063066;28;20185;-60
2022/04/04 10:27:22;;;;;;;8.38;7.25;;;13.70;42.70;;;;;;5058083;28;20438;-60
2022/04/04 10:29:48;;;;;;;7.22;6.47;;;12.90;45.80;;;;;;5055479;28;20250;-60
2022/04/04 10:32:25;;;;;;;7.93;7.23;;;13.30;45.00;;;;;;5053969;28;20210;-57
2022/04/04 10:34:51;;;;;;;7.03;6.43;;;13.40;44.10;;;;;;5061632;28;20213;-60
2022/04/04 10:37:19;;;;;;;7.50;6.60;;;14.20;43.90;;;;;;5061166;28;20597;-59
2022/04/04 10:39:48;;;;;;;7.88;7.15;;;15.30;44.70;;;;;;5050539;28;20193;-58
2022/04/04 10:42:27;;;;;;;7.07;6.57;;;15.00;42.30;;;;;;5061258;28;20212;-58
2022/04/04 10:45:03;;;;;;;10.57;6.63;;;13.80;42.60;;;;;;5049197;28;20181;-58
2022/04/04 10:47:30;;;;;;;7.20;6.60;;;13.60;43.00;;;;;;5049745;28;20181;-60
2022/04/04 10:49:57;;;;;;;7.32;6.70;;;13.60;43.40;;;;;;5050250;28;20177;-58
2022/04/04 10:52:42;;;;;;;6.50;5.93;;;13.60;41.60;;;;;;5049531;28;20236;-58
2022/04/04 10:55:27;;;;;;;6.60;6.05;;;13.90;41.80;;;;;;5057227;28;20185;-59
2022/04/04 10:57:58;;;;;;;6.60;6.10;;;14.20;41.00;;;;;;5033377;28;20181;-59
2022/04/04 11:00:37;;;;;;;5.43;4.93;;;14.20;41.50;;;;;;5056441;28;20201;-57
2022/04/04 11:03:09;;;;;;;5.88;5.40;;;14.40;41.30;;;;;;5064535;22;20512;-64
2022/04/04 11:08:42;;;;;;;5.60;5.20;;;14.50;40.20;;;;;;5062231;28;20310;-63
2022/04/04 11:11:14;;;;;;;6.25;5.55;;;15.00;40.80;;;;;;5061041;28;20203;-64
2022/04/04 11:13:50;;;;;;;6.05;5.47;;;14.60;40.10;;;;;;5092335;28;20213;-64
2022/04/04 11:16:17;;;;;;;5.38;4.88;;;14.10;39.90;;;;;;5080046;28;20180;-65
2022/04/04 11:18:53;;;;;;;5.60;5.10;;;14.10;40.30;;;;;;5078651;28;20232;-58
2022/04/04 11:21:41;;;;;;;5.97;5.40;;;14.10;40.10;;;;;;5079018;28;20622;-57
2022/04/04 11:24:09;;;;;;;6.55;5.55;;;13.50;41.90;;;;;;5075145;28;20642;-62
2022/04/04 11:26:35;;;;;;;5.28;4.88;;;13.60;41.90;;;;;;5083836;28;20172;-63
2022/04/04 11:29:02;;;;;;;7.43;5.10;;;13.40;42.10;;;;;;5084783;28;20302;-61
2022/04/04 11:31:28;;;;;;;5.32;4.85;;;13.60;41.50;;;;;;5094054;28;20188;-62
2022/04/04 11:33:54;;;;;;;5.97;5.47;;;13.20;42.40;;;;;;5088885;28;20211;-60
2022/04/04 11:36:23;;;;;;;5.90;5.30;;;13.80;43.60;;;;;;5070549;28;20533;-61
2022/04/04 11:38:51;;;;;;;6.30;5.70;;;14.10;43.40;;;;;;5086997;28;20196;-65
2022/04/04 11:41:19;;;;;;;5.20;4.80;;;13.80;43.30;;;;;;5087721;28;20286;-65
2022/04/04 11:43:50;;;;;;;5.88;5.38;;;13.90;43.60;;;;;;5077995;28;20530;-65
2022/04/04 11:46:19;;;;;;;5.15;4.75;;;13.10;43.00;;;;;;5071863;28;20623;-66
2022/04/04 11:48:49;;;;;;;5.38;4.97;;;12.90;43.10;;;;;;5085630;28;20204;-65
2022/04/04 11:51:15;;;;;;;5.60;5.13;;;12.90;43.30;;;;;;5069418;28;20195;-62
2022/04/04 11:53:43;;;;;;;5.40;4.90;;;12.80;44.30;;;;;;5079239;28;20241;-67
2022/04/04 11:56:20;;;;;;;5.72;5.20;;;13.10;44.40;;;;;;5085461;28;20554;-67
2022/04/04 11:58:54;;;;;;;5.85;5.45;;;13.10;44.00;;;;;;5085332;28;20202;-60
2022/04/04 12:01:20;;;;;;;5.95;5.10;;;13.00;44.10;;;;;;5079885;28;20200;-58
2022/04/04 12:03:49;;;;;;;5.43;5.00;;;12.70;44.60;;;;;;5075980;28;20271;-61
2022/04/04 12:06:16;;;;;;;5.45;4.95;;;12.60;45.10;;;;;;5079151;28;20825;-60
2022/04/04 12:08:44;;;;;;;7.07;4.70;;;12.20;44.90;;;;;;5094812;28;20182;-61
2022/04/04 12:11:10;;;;;;;6.13;5.47;;;12.00;45.40;;;;;;5086945;28;20677;-63
2022/04/04 12:13:49;;;;;;;6.17;5.13;;;11.80;46.50;;;;;;5064382;28;20211;-64
2022/04/04 12:16:16;;;;;;;5.60;5.10;;;11.90;47.90;;;;;;5087805;28;20436;-61
2022/04/04 12:18:42;;;;;;;5.53;5.10;;;12.10;46.70;;;;;;5082564;28;20276;-62
2022/04/04 12:21:08;;;;;;;5.73;5.10;;;12.00;47.20;;;;;;5083730;28;20596;-66
2022/04/04 12:26:32;;;;;;;5.10;4.65;;;11.70;47.30;;;;;;5043257;28;20177;-62
2022/04/04 12:28:58;;;;;;;5.70;5.30;;;11.60;47.10;;;;;;5073189;28;20191;-63
2022/04/04 12:31:26;;;;;;;5.50;5.00;;;11.90;47.50;;;;;;5088625;28;20519;-61
2022/04/04 12:33:59;;;;;;;5.63;5.13;;;11.60;47.00;;;;;;5081380;28;20230;-63
2022/04/04 12:36:29;;;;;;;6.03;5.53;;;11.30;47.30;;;;;;5084248;28;20178;-63
2022/04/04 12:38:58;;;;;;;5.60;5.20;;;11.30;47.70;;;;;;5085228;28;20248;-63
2022/04/04 12:41:25;;;;;;;5.32;4.85;;;11.30;48.80;;;;;;5091371;28;20215;-63
2022/04/04 12:44:02;;;;;;;6.60;5.35;;;11.30;48.80;;;;;;5078186;28;20198;-60
2022/04/04 12:46:34;;;;;;;5.75;5.25;;;11.10;48.40;;;;;;5081882;28;20180;-61
2022/04/04 12:49:20;;;;;;;7.00;5.97;;;11.10;49.20;;;;;;5090900;28;20182;-61
2022/04/04 12:51:58;;;;;;;6.43;5.85;;;10.80;50.10;;;;;;5083578;28;20185;-61
2022/04/04 12:54:30;;;;;;;6.95;5.60;;;10.90;50.80;;;;;;5083705;28;20192;-61
2022/04/04 12:56:57;;;;;;;6.35;5.75;;;11.00;50.80;;;;;;5094734;28;20188;-61
2022/04/04 12:59:26;;;;;;;6.90;6.25;;;11.00;50.20;;;;;;5081328;28;20195;-64